createdAt,value
2023-01-09T00:02:09.167Z,12.80
2023-01-09T00:05:20.072Z,13.27
2023-01-09T00:08:09.923Z,12.30
2023-01-09T00:11:07.463Z,10.73
2023-01-09T00:14:07.326Z,14.15
2023-01-09T00:17:09.630Z,12.30
2023-01-09T00:20:06.187Z,16.73
2023-01-09T00:23:13.268Z,10.98
2023-01-09T00:26:17.177Z,12.98
2023-01-09T00:29:12.252Z,13.55
2023-01-09T00:32:16.368Z,12.73
2023-01-09T00:35:10.964Z,12.32
2023-01-09T00:38:08.967Z,12.05
2023-01-09T00:41:11.852Z,11.55
2023-01-09T00:44:08.003Z,14.35
2023-01-09T00:47:06.027Z,12.40
2023-01-09T00:50:07.320Z,13.50
2023-01-09T00:53:20.800Z,14.13
2023-01-09T00:56:20.691Z,13.15
2023-01-09T00:59:16.574Z,14.25
2023-01-09T01:02:12.287Z,15.40
2023-01-09T01:05:21.795Z,12.30
2023-01-09T01:08:13.035Z,13.90
2023-01-09T01:11:13.866Z,12.23
2023-01-09T01:14:14.549Z,12.98
2023-01-09T01:17:12.877Z,13.68
2023-01-09T01:20:14.638Z,14.82
2023-01-09T01:23:10.600Z,14.00
2023-01-09T01:26:12.629Z,14.48
2023-01-09T01:29:09.707Z,17.00
2023-01-09T01:32:14.901Z,13.20
2023-01-09T01:35:33.487Z,16.17
2023-01-09T01:38:55.334Z,15.85
2023-01-09T01:42:03.878Z,16.67
2023-01-09T01:45:11.633Z,12.57
2023-01-09T01:48:03.903Z,15.88
2023-01-09T01:51:06.126Z,12.57
2023-01-09T01:54:04.930Z,14.55
2023-01-09T01:57:03.623Z,18.15
2023-01-09T02:00:07.066Z,16.58
2023-01-09T02:02:57.087Z,15.75
2023-01-09T02:05:58.326Z,14.13
2023-01-09T02:09:14.596Z,15.30
2023-01-09T02:12:04.498Z,16.23
2023-01-09T02:15:05.334Z,16.35
2023-01-09T02:18:30.696Z,15.25
2023-01-09T02:21:27.560Z,17.60
2023-01-09T02:24:42.519Z,16.98
2023-01-09T02:27:56.185Z,18.02
2023-01-09T02:30:49.762Z,17.42
2023-01-09T02:33:50.294Z,16.58
2023-01-09T02:36:53.790Z,15.20
2023-01-09T02:42:43.504Z,12.93
2023-01-09T02:45:31.398Z,16.02
2023-01-09T02:48:20.931Z,13.00
2023-01-09T02:51:19.548Z,14.02
2023-01-09T02:54:22.823Z,12.05
2023-01-09T02:57:27.515Z,10.88
2023-01-09T03:00:28.042Z,13.90
2023-01-09T03:03:27.463Z,12.82
2023-01-09T03:06:21.603Z,14.32
2023-01-09T03:09:15.379Z,12.55
2023-01-09T03:12:09.175Z,13.00
2023-01-09T03:15:02.347Z,13.40
2023-01-09T03:18:04.005Z,11.80
2023-01-09T03:20:58.405Z,15.25
2023-01-09T03:23:59.026Z,17.95
2023-01-09T03:27:14.835Z,15.23
2023-01-09T03:30:02.789Z,14.07
2023-01-09T03:33:00.030Z,13.43
2023-01-09T03:36:16.004Z,16.50
2023-01-09T03:39:09.672Z,14.27
2023-01-09T03:42:12.770Z,14.75
2023-01-09T03:45:08.708Z,14.93
2023-01-09T03:48:06.653Z,12.65
2023-01-09T03:51:19.692Z,15.45
2023-01-09T03:54:09.721Z,15.25
2023-01-09T03:57:02.211Z,15.05
2023-01-09T03:59:57.866Z,14.32
2023-01-09T04:02:59.853Z,13.52
2023-01-09T04:06:13.384Z,15.77
2023-01-09T04:09:16.741Z,14.27
2023-01-09T04:12:10.774Z,15.20
2023-01-09T04:15:05.643Z,13.43
2023-01-09T04:18:11.354Z,16.63
2023-01-09T04:20:59.258Z,14.65
2023-01-09T04:24:08.831Z,15.40
2023-01-09T04:27:18.207Z,15.05
2023-01-09T04:30:10.148Z,13.43
2023-01-09T04:33:07.667Z,16.42
2023-01-09T04:36:17.111Z,14.75
2023-01-09T04:39:15.433Z,15.52
2023-01-09T04:42:11.196Z,16.27
2023-01-09T04:45:25.327Z,18.77
2023-01-09T04:48:18.269Z,15.32
2023-01-09T04:54:20.369Z,15.13
2023-01-09T04:57:10.942Z,15.80
2023-01-09T05:00:16.535Z,16.00
2023-01-09T05:03:09.025Z,17.42
2023-01-09T05:06:04.049Z,17.10
2023-01-09T05:09:18.148Z,18.02
2023-01-09T05:12:15.618Z,14.73
2023-01-09T05:15:07.824Z,15.60
2023-01-09T05:18:21.637Z,13.32
2023-01-09T05:21:09.534Z,14.75
2023-01-09T05:24:08.986Z,12.80
2023-01-09T05:27:02.262Z,14.82
2023-01-09T05:30:20.010Z,16.42
2023-01-09T05:33:08.408Z,13.95
2023-01-09T05:36:04.669Z,13.50
2023-01-09T05:39:05.634Z,10.40
2023-01-09T05:42:04.167Z,13.07
2023-01-09T05:45:06.188Z,12.85
2023-01-09T05:48:04.125Z,10.80
2023-01-09T05:51:10.170Z,13.90
2023-01-09T05:54:05.318Z,12.32
2023-01-09T05:57:11.541Z,12.85
2023-01-09T06:00:23.881Z,12.10
2023-01-09T06:03:13.397Z,9.30
2023-01-09T06:06:04.702Z,8.30
2023-01-09T06:09:02.033Z,6.18
2023-01-09T06:12:11.444Z,4.68
2023-01-09T06:15:33.665Z,4.25
2023-01-09T06:18:24.641Z,3.03
2023-01-09T06:21:14.200Z,1.55
2023-01-09T06:24:07.901Z,1.55
2023-01-09T06:27:20.106Z,1.45
2023-01-09T06:30:12.492Z,1.40
2023-01-09T06:33:28.293Z,1.77
2023-01-09T06:36:25.131Z,1.48
2023-01-09T06:39:27.876Z,1.52
2023-01-09T06:42:50.665Z,1.95
2023-01-09T06:46:02.257Z,1.30
2023-01-09T06:48:57.944Z,0.93
2023-01-09T06:52:14.923Z,1.23
2023-01-09T06:55:09.055Z,1.00
2023-01-09T06:57:57.121Z,1.05
2023-01-09T07:00:50.425Z,1.10
2023-01-09T07:03:52.760Z,2.10
2023-01-09T07:06:55.072Z,1.00
2023-01-09T07:10:05.092Z,1.98
2023-01-09T07:12:54.800Z,1.60
2023-01-09T07:15:54.728Z,1.88
2023-01-09T07:18:52.447Z,1.00
2023-01-09T07:21:51.911Z,1.13
2023-01-09T07:24:58.023Z,0.85
2023-01-09T07:28:05.854Z,0.90
2023-01-09T07:30:57.186Z,2.20
2023-01-09T07:33:59.969Z,1.05
2023-01-09T07:36:54.382Z,0.85
2023-01-09T07:39:53.893Z,1.00
2023-01-09T07:43:22.148Z,0.85
2023-01-09T07:46:21.184Z,3.55
2023-01-09T07:49:09.352Z,7.30
2023-01-09T07:52:13.459Z,9.02
2023-01-09T07:55:09.383Z,8.02
2023-01-09T07:58:08.927Z,9.25
2023-01-09T08:01:06.135Z,5.55
2023-01-09T08:04:16.956Z,14.52
2023-01-09T08:07:06.485Z,9.35
2023-01-09T08:10:00.865Z,11.57
2023-01-09T08:13:04.039Z,22.05
2023-01-09T08:19:20.333Z,6.05
2023-01-09T08:22:11.941Z,4.60
2023-01-09T08:25:00.138Z,6.38
2023-01-09T08:27:52.520Z,4.80
2023-01-09T08:31:00.575Z,6.35
2023-01-09T08:34:13.999Z,5.28
2023-01-09T08:40:06.836Z,1.58
2023-01-09T08:43:13.315Z,1.73
2023-01-09T08:46:19.211Z,2.65
2023-01-09T08:49:08.462Z,1.60
2023-01-09T08:51:59.676Z,1.25
2023-01-09T08:54:59.376Z,1.60
2023-01-09T08:57:56.437Z,3.00
2023-01-09T09:00:56.340Z,4.90
2023-01-09T09:04:09.121Z,4.40
2023-01-09T09:06:58.799Z,2.37
2023-01-09T09:09:53.743Z,3.95
2023-01-09T09:13:14.173Z,3.40
2023-01-09T09:16:04.233Z,2.83
2023-01-09T09:19:14.120Z,2.88
2023-01-09T09:22:09.893Z,3.55
2023-01-09T09:24:58.084Z,4.03
2023-01-09T09:28:11.708Z,5.93
2023-01-09T09:31:01.311Z,5.80
2023-01-09T09:33:55.662Z,3.13
2023-01-09T09:40:17.387Z,4.45
2023-01-09T09:43:43.451Z,1.52
2023-01-09T09:46:42.617Z,5.88
2023-01-09T09:49:46.663Z,2.30
2023-01-09T09:52:47.329Z,3.25
2023-01-09T09:55:46.083Z,2.25
2023-01-09T09:58:44.287Z,4.35
2023-01-09T10:01:42.840Z,2.92
2023-01-09T10:04:34.510Z,3.85
2023-01-09T10:07:28.823Z,5.60
2023-01-09T10:10:25.664Z,3.20
2023-01-09T10:13:37.225Z,5.32
2023-01-09T10:16:35.406Z,4.07
2023-01-09T10:19:46.462Z,4.00
2023-01-09T10:22:52.539Z,2.20
2023-01-09T10:25:52.116Z,2.47
2023-01-09T10:29:14.386Z,1.85
2023-01-09T10:32:27.316Z,3.00
2023-01-09T10:35:47.766Z,5.90
2023-01-09T10:38:41.016Z,2.83
2023-01-09T10:41:39.404Z,2.58
2023-01-09T10:44:37.543Z,3.38
2023-01-09T10:47:30.809Z,2.65
2023-01-09T10:50:24.114Z,1.98
2023-01-09T10:53:21.590Z,2.95
2023-01-09T10:56:18.939Z,2.60
2023-01-09T10:59:06.840Z,3.45
2023-01-09T11:01:56.521Z,2.17
2023-01-09T11:04:44.667Z,3.13
2023-01-09T11:07:38.654Z,2.08
2023-01-09T11:10:50.590Z,4.28
2023-01-09T11:13:45.274Z,1.48
2023-01-09T11:16:33.572Z,4.50
2023-01-09T11:19:25.080Z,5.53
2023-01-09T11:22:19.844Z,2.22
2023-01-09T11:25:28.347Z,7.25
2023-01-09T11:32:03.373Z,1.95
2023-01-09T11:35:26.662Z,3.75
2023-01-09T11:47:41.670Z,4.38
2023-01-09T11:50:32.226Z,2.75
2023-01-09T11:53:21.488Z,2.28
2023-01-09T11:56:11.816Z,2.85
2023-01-09T11:59:01.105Z,2.47
2023-01-09T12:02:26.359Z,5.53
2023-01-09T12:05:30.961Z,2.05
2023-01-09T12:08:36.594Z,3.83
2023-01-09T12:11:35.246Z,1.95
2023-01-09T12:14:37.534Z,2.35
2023-01-09T12:18:03.319Z,6.18
2023-01-09T12:21:08.043Z,4.47
2023-01-09T12:24:20.648Z,2.72
2023-01-09T12:27:25.460Z,2.65
2023-01-09T12:30:26.766Z,3.70
2023-01-09T12:33:30.172Z,1.88
2023-01-09T12:36:26.813Z,4.95
2023-01-09T12:39:29.394Z,3.42
2023-01-09T12:42:33.875Z,2.63
2023-01-09T12:45:45.461Z,3.13
2023-01-09T12:48:49.697Z,3.50
2023-01-09T12:51:42.137Z,1.83
2023-01-09T12:54:38.282Z,3.55
2023-01-09T12:57:32.491Z,3.47
2023-01-09T13:00:24.658Z,3.08
2023-01-09T13:03:19.465Z,1.80
2023-01-09T13:06:13.969Z,3.50
2023-01-09T13:09:14.114Z,2.03
2023-01-09T13:12:09.010Z,2.00
2023-01-09T13:15:01.728Z,5.70
2023-01-09T13:20:45.657Z,2.20
2023-01-09T13:23:43.355Z,4.30
2023-01-09T13:26:35.566Z,3.38
2023-01-09T13:29:31.140Z,4.47
2023-01-09T13:32:32.642Z,1.40
2023-01-09T13:35:20.830Z,3.08
2023-01-09T13:38:20.614Z,1.75
2023-01-09T13:41:33.065Z,1.45
2023-01-09T13:44:28.586Z,4.85
2023-01-09T13:47:20.337Z,3.05
2023-01-09T13:50:25.358Z,2.45
2023-01-09T13:53:46.183Z,1.75
2023-01-09T13:56:33.974Z,3.47
2023-01-09T13:59:32.522Z,1.80
2023-01-09T14:02:53.668Z,6.05
2023-01-09T14:06:22.450Z,3.42
2023-01-09T14:09:19.637Z,3.33
2023-01-09T14:12:08.646Z,4.13
2023-01-09T14:15:02.079Z,2.80
2023-01-09T14:17:50.792Z,3.60
2023-01-09T14:20:42.510Z,2.78
2023-01-09T14:23:50.962Z,2.72
2023-01-09T14:26:48.232Z,2.30
2023-01-09T14:29:47.672Z,3.83
2023-01-09T14:32:46.263Z,2.80
2023-01-09T14:35:42.648Z,3.95
2023-01-09T14:38:34.753Z,2.30
2023-01-09T14:41:40.265Z,2.55
2023-01-09T14:44:31.198Z,1.40
2023-01-09T14:47:26.457Z,3.08
2023-01-09T14:50:23.145Z,2.63
2023-01-09T14:53:16.970Z,4.00
2023-01-09T14:56:08.407Z,3.38
2023-01-09T14:59:14.157Z,2.35
2023-01-09T15:02:02.195Z,2.47
2023-01-09T15:04:50.078Z,3.20
2023-01-09T15:07:45.312Z,7.90
2023-01-09T15:10:37.752Z,6.53
2023-01-09T15:13:33.317Z,17.52
2023-01-09T15:16:24.504Z,6.78
2023-01-09T15:19:15.849Z,5.38
2023-01-09T15:22:05.946Z,3.47
2023-01-09T15:24:55.257Z,6.85
2023-01-09T15:27:49.703Z,2.35
2023-01-09T15:30:37.728Z,1.83
2023-01-09T15:33:26.059Z,2.17
2023-01-09T15:36:18.419Z,3.38
2023-01-09T15:39:08.847Z,2.17
2023-01-09T15:42:17.025Z,3.00
2023-01-09T15:45:05.437Z,1.48
2023-01-09T15:47:53.418Z,1.50
2023-01-09T15:50:41.888Z,3.63
2023-01-09T15:53:30.691Z,1.83
2023-01-09T15:56:24.159Z,1.45
2023-01-09T15:59:27.004Z,2.80
2023-01-09T16:02:33.580Z,0.90
2023-01-09T16:05:22.218Z,0.85
2023-01-09T16:08:22.389Z,1.30
2023-01-09T16:11:21.113Z,2.75
2023-01-09T16:14:15.521Z,0.88
2023-01-09T16:17:13.067Z,1.20
2023-01-09T16:20:14.601Z,0.82
2023-01-09T16:23:03.038Z,3.08
2023-01-09T16:25:50.911Z,1.50
2023-01-09T16:28:40.938Z,1.00
2023-01-09T16:31:30.998Z,1.98
2023-01-09T16:34:20.673Z,1.73
2023-01-09T16:37:08.841Z,2.30
2023-01-09T16:40:32.047Z,1.85
2023-01-09T16:43:19.322Z,1.95
2023-01-09T16:46:07.420Z,2.28
2023-01-09T16:48:56.521Z,1.30
2023-01-09T16:51:45.714Z,4.40
2023-01-09T16:54:34.068Z,1.65
2023-01-09T16:57:21.687Z,2.17
2023-01-09T17:00:16.745Z,2.13
2023-01-09T17:03:04.755Z,2.20
2023-01-09T17:05:55.391Z,5.93
2023-01-09T17:08:45.179Z,3.25
2023-01-09T17:11:33.220Z,5.18
2023-01-09T17:14:21.297Z,9.77
2023-01-09T17:17:12.458Z,3.30
2023-01-09T17:20:00.919Z,3.58
2023-01-09T17:22:48.742Z,5.00
2023-01-09T17:25:56.567Z,17.35
2023-01-09T17:28:48.609Z,7.72
2023-01-09T17:31:38.647Z,9.40
2023-01-09T17:34:27.283Z,6.15
2023-01-09T17:37:17.499Z,5.38
2023-01-09T17:40:06.391Z,5.28
2023-01-09T17:42:55.322Z,2.25
2023-01-09T17:45:43.800Z,3.78
2023-01-09T17:48:31.947Z,3.85
2023-01-09T17:51:20.373Z,3.50
2023-01-09T17:54:08.206Z,8.60
2023-01-09T17:56:56.315Z,5.75
2023-01-09T17:59:46.281Z,5.53
2023-01-09T18:02:34.035Z,5.30
2023-01-09T18:05:22.139Z,6.13
2023-01-09T18:08:13.936Z,6.35
2023-01-09T18:11:03.924Z,5.43
2023-01-09T18:13:54.694Z,4.13
2023-01-09T18:16:45.126Z,4.85
2023-01-09T18:19:33.637Z,6.78
2023-01-09T18:22:21.326Z,10.07
2023-01-09T18:25:09.997Z,5.70
2023-01-09T18:28:03.796Z,4.95
2023-01-09T18:30:52.111Z,3.38
2023-01-09T18:33:41.652Z,3.97
2023-01-09T18:36:30.410Z,4.22
2023-01-09T18:39:18.647Z,17.08
2023-01-09T18:42:07.384Z,7.10
2023-01-09T18:44:55.244Z,5.03
2023-01-09T18:47:45.178Z,6.13
2023-01-09T18:50:34.494Z,4.88
2023-01-09T18:53:22.429Z,4.63
2023-01-09T18:56:10.607Z,4.95
2023-01-09T18:58:59.446Z,3.60
2023-01-09T19:01:47.473Z,3.25
2023-01-09T19:04:35.311Z,5.82
2023-01-09T19:07:24.993Z,7.05
2023-01-09T19:10:13.880Z,4.28
2023-01-09T19:13:03.708Z,2.53
2023-01-09T19:15:57.268Z,3.88
2023-01-09T19:18:45.875Z,3.42
2023-01-09T19:21:34.235Z,5.00
2023-01-09T19:24:25.669Z,3.00
2023-01-09T19:27:13.755Z,3.78
2023-01-09T19:30:01.823Z,3.17
2023-01-09T19:32:49.921Z,2.40
2023-01-09T19:35:38.855Z,2.75
2023-01-09T19:38:27.758Z,3.55
2023-01-09T19:41:19.556Z,2.47
2023-01-09T19:44:07.933Z,6.50
2023-01-09T19:46:56.044Z,4.47
2023-01-09T19:49:43.884Z,2.33
2023-01-09T19:52:31.895Z,3.85
2023-01-09T19:55:22.700Z,2.08
2023-01-09T19:58:14.697Z,3.25
2023-01-09T20:01:12.082Z,3.45
2023-01-09T20:04:05.013Z,2.42
2023-01-09T20:06:53.381Z,3.20
2023-01-09T20:09:41.449Z,3.50
2023-01-09T20:12:29.763Z,3.13
2023-01-09T20:15:18.997Z,3.53
2023-01-09T20:18:08.243Z,2.88
2023-01-09T20:20:57.040Z,2.50
2023-01-09T20:23:44.885Z,3.17
2023-01-09T20:26:33.742Z,3.70
2023-01-09T20:29:21.695Z,2.95
2023-01-09T20:32:12.642Z,2.88
2023-01-09T20:35:02.368Z,2.28
2023-01-09T20:37:50.362Z,2.92
2023-01-09T20:40:39.667Z,1.77
2023-01-09T20:43:29.160Z,1.50
2023-01-09T20:46:16.789Z,2.55
2023-01-09T20:49:07.992Z,1.55
2023-01-09T20:51:55.801Z,1.63
2023-01-09T20:54:45.919Z,1.60
2023-01-09T20:57:33.861Z,3.60
2023-01-09T21:00:23.556Z,2.67
2023-01-09T21:03:15.348Z,3.45
2023-01-09T21:06:07.692Z,1.60
2023-01-09T21:08:55.693Z,1.50
2023-01-09T21:11:43.629Z,2.00
2023-01-09T21:14:31.753Z,2.90
2023-01-09T21:17:19.691Z,3.35
2023-01-09T21:20:09.848Z,3.88
2023-01-09T21:22:59.214Z,5.38
2023-01-09T21:25:48.969Z,5.10
2023-01-09T21:28:45.260Z,7.50
2023-01-09T21:31:35.175Z,5.72
2023-01-09T21:34:23.244Z,6.28
2023-01-09T21:37:11.323Z,8.27
2023-01-09T21:40:00.863Z,8.52
2023-01-09T21:43:06.220Z,5.35
2023-01-09T21:46:13.442Z,4.97
2023-01-09T21:49:01.103Z,3.58
2023-01-09T21:51:49.122Z,3.53
2023-01-09T21:54:37.091Z,2.90
2023-01-09T21:57:26.415Z,3.88
2023-01-09T22:00:15.421Z,1.50
2023-01-09T22:03:05.756Z,2.45
2023-01-09T22:05:53.549Z,1.50
2023-01-09T22:08:41.691Z,1.48
2023-01-09T22:11:29.993Z,1.42
2023-01-09T22:14:20.746Z,1.80
2023-01-09T22:17:09.655Z,2.67
2023-01-09T22:19:57.851Z,1.67
2023-01-09T22:22:45.770Z,1.45
2023-01-09T22:25:36.494Z,1.15
2023-01-09T22:28:25.606Z,1.40
2023-01-09T22:31:18.331Z,1.10
2023-01-09T22:34:06.666Z,1.40
2023-01-09T22:36:54.712Z,1.73
2023-01-09T22:39:42.914Z,3.55
2023-01-09T22:42:30.874Z,2.03
2023-01-09T22:45:19.017Z,3.03
2023-01-09T22:48:08.904Z,1.45
2023-01-09T22:50:59.607Z,2.60
2023-01-09T22:53:48.278Z,2.55
2023-01-09T22:56:36.208Z,1.23
2023-01-09T22:59:27.261Z,2.17
2023-01-09T23:02:15.259Z,3.63
2023-01-09T23:05:04.331Z,3.15
2023-01-09T23:07:52.018Z,1.40
2023-01-09T23:10:40.762Z,1.27
2023-01-09T23:13:28.828Z,2.80
2023-01-09T23:16:16.725Z,1.45
2023-01-09T23:19:06.968Z,1.50
2023-01-09T23:21:56.223Z,2.67
2023-01-09T23:24:44.426Z,2.03
2023-01-09T23:27:32.735Z,2.25
2023-01-09T23:30:20.741Z,3.72
2023-01-09T23:33:08.588Z,2.85
2023-01-09T23:35:56.655Z,1.10
2023-01-09T23:38:46.512Z,1.60
2023-01-09T23:41:48.613Z,1.48
2023-01-09T23:44:36.648Z,2.90
2023-01-09T23:47:24.355Z,2.00
2023-01-09T23:50:13.220Z,3.05
2023-01-09T23:53:01.690Z,2.10
2023-01-09T23:55:54.542Z,3.15
2023-01-09T23:58:42.132Z,1.80
